Irura, Spain
Current Conditions -  °F | °C
As of 10:30 AM on Monday 20 Oct 2014 (Local Time) from LESO Reporting Station
Clear Clear  
Wind Chill: 64°   Ceiling: Unl
Heat Index: 64°   Visibility: 6mi
Dew Point: 61°   Wind: 1mph
Humidity: 88%   Direction: NA
Pressure: 30.12"   Gusts: NA
Location:  43.17°N, 2.07°W
Report Text: LESO 200830Z VRB01KT CAVOK 18/16 Q1020
Loading
Personal Weather Stations






























Interactive Weather Map New forecast layout! Learn more

10-Day Weather Forecast

Advertisements
Track Severe Weather on mobile